Time;durP1;ratioP1;P1;durP2;ratioP2;P2;SDS_P1;SDS_P2;PMS_P1;PMS_P2;Temp;Humidity;BMP_temperature;BMP_pressure;BME280_temperature;BME280_humidity;BME280_pressure;Samples;Min_cycle;Max_cycle;Signal;HPM_P1;HPM_P2
2023/10/20 00:00:14;;;;;;;24.48;16.45;;;;;;;13.88;100.00;98516.34;5015679;28;20032;-73
2023/10/20 00:02:42;;;;;;;23.33;17.10;;;;;;;13.88;100.00;98512.84;5016596;28;20038;-73
2023/10/20 00:05:08;;;;;;;22.33;16.30;;;;;;;13.88;100.00;98504.97;5016874;28;20044;-73
2023/10/20 00:07:34;;;;;;;24.20;16.35;;;;;;;13.85;100.00;98506.09;5016439;28;20240;-73
2023/10/20 00:09:59;;;;;;;23.77;17.27;;;;;;;13.82;100.00;98494.06;5016656;28;20106;-73
2023/10/20 00:12:25;;;;;;;22.80;16.08;;;;;;;13.86;100.00;98496.38;5016873;28;20304;-73
2023/10/20 00:14:51;;;;;;;21.10;16.08;;;;;;;13.86;100.00;98491.13;5016280;28;20092;-73
2023/10/20 00:17:16;;;;;;;29.05;17.85;;;;;;;13.84;100.00;98491.25;5016838;28;20033;-73
2023/10/20 00:19:41;;;;;;;29.00;16.27;;;;;;;13.87;100.00;98484.91;5016530;28;20131;-73
2023/10/20 00:22:07;;;;;;;23.50;16.63;;;;;;;13.89;100.00;98490.84;5016791;28;20263;-73
2023/10/20 00:24:32;;;;;;;22.67;16.10;;;;;;;13.91;100.00;98492.34;5016150;28;20061;-73
2023/10/20 00:26:57;;;;;;;23.00;16.45;;;;;;;13.92;100.00;98487.94;5016838;28;20041;-73
2023/10/20 00:29:23;;;;;;;23.75;16.40;;;;;;;13.87;100.00;98496.25;5016060;28;20433;-73
2023/10/20 00:31:48;;;;;;;25.52;15.88;;;;;;;13.85;100.00;98500.81;5016225;28;20049;-73
2023/10/20 00:34:14;;;;;;;25.92;17.45;;;;;;;13.80;100.00;98487.25;5013553;28;20292;-73
2023/10/20 00:36:39;;;;;;;23.33;17.98;;;;;;;13.89;100.00;98482.97;5009927;28;20026;-73
2023/10/20 00:39:06;;;;;;;22.30;18.00;;;;;;;13.88;100.00;98479.50;5015041;28;20029;-73
2023/10/20 00:41:34;;;;;;;30.60;18.23;;;;;;;13.87;100.00;98477.00;5015419;28;20071;-73
2023/10/20 00:44:00;;;;;;;26.63;18.20;;;;;;;13.86;100.00;98477.97;5016133;28;20037;-73
2023/10/20 00:46:25;;;;;;;22.20;18.25;;;;;;;13.89;100.00;98467.16;5014113;28;20202;-73
2023/10/20 00:48:51;;;;;;;21.58;17.38;;;;;;;13.88;100.00;98455.81;5011417;28;20040;-73
2023/10/20 00:51:18;;;;;;;22.05;17.92;;;;;;;13.90;100.00;98451.25;5013863;28;20105;-73
2023/10/20 00:53:45;;;;;;;21.45;17.65;;;;;;;13.88;100.00;98445.31;5011925;28;20041;-73
2023/10/20 00:56:10;;;;;;;24.88;18.80;;;;;;;13.86;100.00;98442.00;5015974;28;20063;-73
2023/10/20 00:58:37;;;;;;;24.52;19.88;;;;;;;13.86;100.00;98438.50;5015215;28;20092;-73
2023/10/20 01:01:04;;;;;;;21.83;18.50;;;;;;;13.86;100.00;98431.47;5015813;28;20038;-73
2023/10/20 01:03:32;;;;;;;23.65;18.73;;;;;;;13.90;100.00;98435.47;5014908;28;20041;-73
2023/10/20 01:05:57;;;;;;;22.08;18.88;;;;;;;13.87;100.00;98441.00;5015552;28;20032;-73
2023/10/20 01:08:23;;;;;;;23.02;18.45;;;;;;;13.88;100.00;98445.31;5015921;28;20065;-73
2023/10/20 01:10:48;;;;;;;29.00;19.70;;;;;;;13.87;100.00;98451.53;5015438;28;20029;-73
2023/10/20 01:13:15;;;;;;;25.60;20.45;;;;;;;13.83;100.00;98456.25;5015600;28;20070;-73
2023/10/20 01:15:41;;;;;;;26.42;20.10;;;;;;;13.83;100.00;98440.44;5015324;28;20026;-73
2023/10/20 01:18:09;;;;;;;26.05;21.15;;;;;;;13.85;100.00;98427.16;5014875;28;20037;-73
2023/10/20 01:20:34;;;;;;;29.55;21.85;;;;;;;13.83;100.00;98415.97;5014792;28;20060;-73
2023/10/20 01:23:01;;;;;;;27.55;22.40;;;;;;;13.82;100.00;98416.91;5015847;28;20352;-73
2023/10/20 01:25:27;;;;;;;26.20;21.38;;;;;;;13.85;100.00;98418.44;5014543;28;20038;-73
2023/10/20 01:27:52;;;;;;;26.88;20.92;;;;;;;13.85;100.00;98414.00;5015374;28;20038;-73
2023/10/20 01:30:18;;;;;;;33.03;23.45;;;;;;;13.89;100.00;98417.19;5015504;28;20364;-73
2023/10/20 01:32:43;;;;;;;30.10;21.95;;;;;;;13.83;100.00;98408.06;5015160;28;20037;-73
2023/10/20 01:35:09;;;;;;;31.05;22.65;;;;;;;13.82;100.00;98390.59;5015443;28;20356;-73
2023/10/20 01:37:34;;;;;;;29.92;21.67;;;;;;;13.86;100.00;98391.16;5014984;28;20112;-73
2023/10/20 01:39:59;;;;;;;28.65;22.40;;;;;;;13.85;100.00;98379.81;5015193;28;20202;-73
2023/10/20 01:42:25;;;;;;;28.70;21.58;;;;;;;13.87;100.00;98377.03;5015244;28;20037;-73
2023/10/20 01:44:50;;;;;;;28.58;21.23;;;;;;;13.87;100.00;98377.03;5014299;28;20034;-73
2023/10/20 01:47:15;;;;;;;28.17;21.52;;;;;;;13.86;100.00;98373.59;5015237;28;20037;-73
2023/10/20 01:49:41;;;;;;;29.75;21.73;;;;;;;13.80;100.00;98368.88;5014812;28;20037;-73
2023/10/20 01:52:07;;;;;;;28.10;21.40;;;;;;;13.87;100.00;98371.78;5015163;28;20034;-73
2023/10/20 01:54:33;;;;;;;32.08;21.23;;;;;;;13.86;100.00;98370.09;5014196;28;20038;-73
2023/10/20 01:56:58;;;;;;;26.35;20.63;;;;;;;13.89;100.00;98369.81;5014703;28;20362;-73
2023/10/20 01:59:23;;;;;;;26.58;21.15;;;;;;;13.83;100.00;98361.53;5014104;28;20030;-73
2023/10/20 02:01:49;;;;;;;30.02;21.75;;;;;;;13.77;100.00;98346.34;5014364;28;20280;-73
2023/10/20 02:04:14;;;;;;;28.95;21.90;;;;;;;13.74;100.00;98345.78;5014859;28;20105;-73
2023/10/20 02:06:40;;;;;;;29.10;22.02;;;;;;;13.75;100.00;98332.50;5014153;28;20408;-73
2023/10/20 02:09:06;;;;;;;29.85;22.45;;;;;;;13.76;100.00;98328.88;5015064;28;20045;-73
2023/10/20 02:11:31;;;;;;;29.92;22.38;;;;;;;13.74;100.00;98320.31;5014600;28;20160;-73
2023/10/20 02:13:57;;;;;;;31.73;22.75;;;;;;;13.74;100.00;98322.94;5014833;28;20041;-73
2023/10/20 02:16:24;;;;;;;27.13;21.77;;;;;;;13.73;100.00;98313.38;5013846;28;20047;-73
2023/10/20 02:18:49;;;;;;;28.48;21.38;;;;;;;13.80;100.00;98314.47;5014363;28;20296;-73
2023/10/20 02:21:14;;;;;;;28.73;22.08;;;;;;;13.78;100.00;98300.63;5014665;28;20033;-73
2023/10/20 02:23:40;;;;;;;29.88;22.30;;;;;;;13.78;100.00;98290.09;5014524;28;20356;-73
2023/10/20 02:26:07;;;;;;;26.65;21.23;;;;;;;13.74;100.00;98293.19;5014517;28;20244;-73
2023/10/20 02:28:36;;;;;;;28.05;22.30;;;;;;;13.76;100.00;98292.06;5013917;28;20359;-73
2023/10/20 02:31:14;;;;;;;28.02;20.77;;;;;;;13.79;100.00;98290.97;5015050;28;20037;-73
2023/10/20 02:33:40;;;;;;;28.40;21.98;;;;;;;13.77;100.00;98282.34;5005793;28;20080;-73
2023/10/20 02:36:05;;;;;;;29.75;22.23;;;;;;;13.73;100.00;98270.47;5013797;28;20356;-75
2023/10/20 02:38:31;;;;;;;28.05;22.15;;;;;;;13.75;100.00;98272.00;5013472;28;20033;-74
2023/10/20 02:40:56;;;;;;;32.92;23.00;;;;;;;13.71;100.00;98275.88;5014873;28;20108;-74
2023/10/20 02:43:22;;;;;;;31.63;23.00;;;;;;;13.73;100.00;98278.38;5014426;28;20080;-74
2023/10/20 02:45:55;;;;;;;27.38;21.58;;;;;;;13.72;100.00;98272.28;5013965;28;20111;-74
2023/10/20 02:48:21;;;;;;;30.05;22.30;;;;;;;13.71;100.00;98259.28;4999338;28;20092;-74
2023/10/20 02:50:47;;;;;;;33.15;21.45;;;;;;;13.72;100.00;98260.94;5014282;28;20041;-74
2023/10/20 02:53:15;;;;;;;27.83;22.02;;;;;;;13.68;100.00;98249.03;5014165;28;20030;-74
2023/10/20 02:55:41;;;;;;;;;;;;;;;13.70;100.00;98249.72;5013981;28;20022;-74
2023/10/20 02:58:07;;;;;;;28.30;21.17;;;;;;;13.67;100.00;98248.22;5014559;28;19913;-74
2023/10/20 03:00:33;;;;;;;30.38;21.65;;;;;;;13.67;100.00;98250.03;5014389;28;20253;-74
2023/10/20 03:02:59;;;;;;;27.35;21.73;;;;;;;13.70;100.00;98239.19;5014646;28;20100;-74
2023/10/20 03:05:30;;;;;;;29.02;21.52;;;;;;;13.71;100.00;98241.69;5013943;28;20689;-74
2023/10/20 03:07:59;;;;;;;30.85;23.35;;;;;;;13.74;100.00;98248.47;5011335;28;20057;-74
2023/10/20 03:10:25;;;;;;;29.88;23.13;;;;;;;13.73;100.00;98239.72;5014332;28;20230;-74
2023/10/20 03:12:50;;;;;;;34.33;24.05;;;;;;;13.73;100.00;98228.38;5013785;28;20068;-74
2023/10/20 03:15:16;;;;;;;33.50;24.13;;;;;;;13.72;100.00;98219.69;5012871;28;20281;-74
2023/10/20 03:17:41;;;;;;;33.85;24.75;;;;;;;13.75;100.00;98213.28;5014012;28;20038;-74
2023/10/20 03:20:14;;;;;;;34.97;25.42;;;;;;;13.67;100.00;98211.41;5014363;28;20240;-74
2023/10/20 03:22:40;;;;;;;31.38;23.95;;;;;;;13.68;100.00;98205.19;5013899;28;20267;-74
2023/10/20 03:25:08;;;;;;;29.77;23.63;;;;;;;13.62;100.00;98211.00;5014489;28;20531;-74
2023/10/20 03:27:33;;;;;;;34.55;26.08;;;;;;;13.61;100.00;98204.09;5015381;28;20042;-74
2023/10/20 03:29:59;;;;;;;34.60;25.67;;;;;;;13.66;100.00;98201.88;5017693;28;20064;-74
2023/10/20 03:32:24;;;;;;;33.35;24.33;;;;;;;13.63;100.00;98205.59;5017789;28;20105;-74
2023/10/20 03:34:50;;;;;;;33.50;24.45;;;;;;;13.62;100.00;98195.22;5017252;28;20290;-74
2023/10/20 03:37:15;;;;;;;33.53;26.00;;;;;;;13.63;100.00;98197.72;5017153;28;20033;-74
2023/10/20 03:39:43;;;;;;;40.10;26.88;;;;;;;13.57;100.00;98200.94;5017543;28;20037;-74
2023/10/20 03:42:13;;;;;;;36.38;26.60;;;;;;;13.56;100.00;98203.72;5017510;28;20260;-74
2023/10/20 03:44:39;;;;;;;38.13;27.77;;;;;;;13.53;100.00;98199.53;5017430;28;20018;-74
2023/10/20 03:47:05;;;;;;;39.05;28.17;;;;;;;13.55;100.00;98196.78;5017418;28;20037;-74
2023/10/20 03:49:34;;;;;;;44.05;27.67;;;;;;;13.52;100.00;98194.47;5016954;28;20395;-73
2023/10/20 03:52:00;;;;;;;38.10;27.88;;;;;;;13.54;100.00;98180.19;5017348;28;20044;-74
2023/10/20 03:54:25;;;;;;;42.13;28.20;;;;;;;13.51;100.00;98177.84;5017291;28;20049;-74
2023/10/20 03:56:51;;;;;;;38.63;28.75;;;;;;;13.52;100.00;98178.69;5016864;28;20040;-74
2023/10/20 03:59:17;;;;;;;41.80;28.60;;;;;;;13.44;100.00;98185.50;5017283;28;20017;-74
2023/10/20 04:01:42;;;;;;;44.38;29.90;;;;;;;13.43;100.00;98168.06;5017247;28;20084;-74
2023/10/20 04:04:09;;;;;;;44.25;28.77;;;;;;;13.46;100.00;98169.56;5017334;28;20037;-74
2023/10/20 04:06:39;;;;;;;42.33;30.60;;;;;;;13.49;100.00;98171.09;5016732;28;20065;-73
2023/10/20 04:09:09;;;;;;;46.58;28.55;;;;;;;13.42;100.00;98158.53;5016522;28;20030;-74
2023/10/20 04:11:37;;;;;;;44.13;29.52;;;;;;;13.39;100.00;98153.56;5016502;28;20123;-74
2023/10/20 04:14:05;;;;;;;38.70;28.25;;;;;;;13.40;100.00;98134.16;5016562;28;20087;-74
2023/10/20 04:16:41;;;;;;;44.22;29.65;;;;;;;13.37;100.00;98128.38;5016507;28;20050;-74
2023/10/20 04:19:09;;;;;;;45.60;28.40;;;;;;;13.33;100.00;98130.47;5016666;28;20022;-74
2023/10/20 04:21:44;;;;;;;43.28;29.13;;;;;;;13.33;100.00;98119.13;5011173;28;20113;-74
2023/10/20 04:24:10;;;;;;;42.65;28.30;;;;;;;13.33;100.00;98133.09;5010751;28;20065;-74
2023/10/20 04:26:37;;;;;;;40.05;28.23;;;;;;;13.25;100.00;98144.31;5011574;28;20057;-74
2023/10/20 04:56:23;;;;;;;36.95;24.88;;;;;;;13.10;100.00;98098.47;5016156;28;20085;-74
2023/10/20 04:59:05;;;;;;;42.53;25.02;;;;;;;13.06;100.00;98090.06;5015716;28;20042;-74
2023/10/20 05:01:48;;;;;;;43.22;26.05;;;;;;;12.93;100.00;98086.91;5015542;28;20041;-73
2023/10/20 05:05:01;;;;;;;44.25;27.30;;;;;;;12.86;100.00;98089.31;5016763;28;20060;-74
2023/10/20 05:07:05;;;;;;;40.80;25.70;;;;;;;12.83;100.00;98080.88;5004960;28;20045;-74
2023/10/20 05:09:32;;;;;;;48.28;26.77;;;;;;;12.84;100.00;98072.88;5015836;28;20286;-74
2023/10/20 05:11:58;;;;;;;43.28;25.40;;;;;;;12.78;100.00;98059.47;5016139;28;20050;-74
2023/10/20 05:14:23;;;;;;;44.42;25.65;;;;;;;12.75;100.00;98057.97;5015203;28;20501;-74
2023/10/20 05:16:48;;;;;;;46.35;25.70;;;;;;;12.72;100.00;98053.00;5015231;28;20030;-74
2023/10/20 05:19:14;;;;;;;41.25;25.30;;;;;;;12.62;100.00;98037.25;5015598;28;20061;-74
2023/10/20 05:21:39;;;;;;;49.85;25.67;;;;;;;12.65;100.00;98039.63;5014850;28;20033;-74
2023/10/20 05:24:05;;;;;;;45.47;25.42;;;;;;;12.63;100.00;98028.44;5015385;28;20033;-74
2023/10/20 05:26:31;;;;;;;45.75;25.48;;;;;;;12.66;100.00;98027.31;5014963;28;20025;-73
2023/10/20 05:28:58;;;;;;;41.50;24.23;;;;;;;12.60;100.00;98026.09;5015235;28;20033;-74
2023/10/20 05:31:29;;;;;;;39.08;24.27;;;;;;;12.58;100.00;98024.59;5029987;28;20049;-74
2023/10/20 05:33:55;;;;;;;42.05;24.67;;;;;;;12.52;100.00;98033.88;5015734;28;20076;-73
2023/10/20 05:36:21;;;;;;;41.88;23.95;;;;;;;12.51;100.00;98034.81;5015586;28;20037;-73
2023/10/20 05:38:46;;;;;;;45.05;24.52;;;;;;;12.48;100.00;98035.94;5015039;28;20340;-72
2023/10/20 05:41:12;;;;;;;42.15;23.05;;;;;;;12.45;100.00;98044.09;5015581;28;20187;-73
2023/10/20 05:43:38;;;;;;;42.83;23.50;;;;;;;12.43;100.00;98043.41;5014258;28;20049;-72
2023/10/20 05:46:04;;;;;;;43.00;24.35;;;;;;;12.43;100.00;98040.78;5014874;28;20328;-73
2023/10/20 05:48:29;;;;;;;38.35;23.55;;;;;;;12.38;100.00;98029.06;5014367;28;20340;-73
2023/10/20 05:50:57;;;;;;;45.28;24.27;;;;;;;12.26;100.00;98034.50;5014637;28;20333;-72
2023/10/20 05:53:22;;;;;;;42.88;23.95;;;;;;;12.24;100.00;98027.72;5014876;28;20033;-72
2023/10/20 05:55:48;;;;;;;43.15;23.85;;;;;;;12.17;100.00;98026.63;5014573;28;20048;-73
2023/10/20 05:58:13;;;;;;;41.72;24.10;;;;;;;12.20;100.00;98023.72;5014769;28;20033;-74
2023/10/20 06:00:39;;;;;;;39.92;22.67;;;;;;;12.10;100.00;98021.13;5014503;28;20064;-74
2023/10/20 06:03:05;;;;;;;37.58;22.55;;;;;;;12.16;100.00;98025.81;5014482;28;20320;-74
2023/10/20 06:05:30;;;;;;;40.97;23.35;;;;;;;12.15;100.00;98021.53;5014451;28;20253;-74
2023/10/20 06:07:56;;;;;;;39.47;22.08;;;;;;;12.07;100.00;98035.34;5014626;28;20041;-74
2023/10/20 06:10:24;;;;;;;44.13;23.08;;;;;;;12.01;100.00;98017.56;5014534;28;20136;-74
2023/10/20 06:12:51;;;;;;;39.67;23.10;;;;;;;12.08;100.00;98017.81;5014493;28;20264;-74
2023/10/20 06:15:17;;;;;;;39.10;21.80;;;;;;;12.03;100.00;98020.84;5013908;28;20048;-74
2023/10/20 06:17:42;;;;;;;36.15;21.50;;;;;;;11.95;100.00;98023.38;5013831;28;20103;-74
2023/10/20 06:20:09;;;;;;;40.15;21.50;;;;;;;11.96;100.00;98032.06;5014873;28;20030;-74
2023/10/20 06:22:35;;;;;;;37.78;21.55;;;;;;;11.96;100.00;98035.50;5013686;28;20026;-74
2023/10/20 06:25:00;;;;;;;37.45;20.60;;;;;;;11.93;100.00;98037.56;5013773;28;20155;-74
2023/10/20 06:27:26;;;;;;;37.08;20.30;;;;;;;11.90;100.00;98028.19;5014022;28;20164;-74
2023/10/20 06:32:42;;;;;;;31.55;18.98;;;;;;;11.79;100.00;98023.03;5009179;28;20080;-75
2023/10/20 06:35:09;;;;;;;33.33;20.02;;;;;;;11.85;100.00;98031.19;5013297;28;20052;-74
2023/10/20 06:37:53;;;;;;;31.05;19.27;;;;;;;11.79;100.00;98009.94;5012919;28;20103;-76
2023/10/20 06:40:19;;;;;;;30.55;18.08;;;;;;;11.72;100.00;98010.50;5013779;28;20060;-75
2023/10/20 06:42:45;;;;;;;30.70;18.45;;;;;;;11.65;100.00;98005.97;5013757;28;20304;-76
2023/10/20 06:45:11;;;;;;;29.85;18.63;;;;;;;11.65;100.00;98014.63;5014260;28;20033;-76
2023/10/20 06:47:36;;;;;;;30.17;17.40;;;;;;;11.65;100.00;98008.56;5013610;28;20044;-75
2023/10/20 06:50:02;;;;;;;29.10;17.55;;;;;;;11.59;100.00;98024.84;5004760;28;20061;-76
2023/10/20 06:52:27;;;;;;;27.63;17.33;;;;;;;11.58;100.00;98013.53;5028640;28;20041;-75
2023/10/20 06:54:56;;;;;;;25.90;16.33;;;;;;;11.59;100.00;98017.81;5013858;28;20034;-75
2023/10/20 06:57:22;;;;;;;27.45;16.50;;;;;;;11.51;100.00;98017.66;5010725;28;20042;-76
2023/10/20 06:59:49;;;;;;;24.98;15.00;;;;;;;11.50;100.00;98021.28;5013532;28;20034;-75
2023/10/20 07:02:15;;;;;;;21.95;14.45;;;;;;;11.54;100.00;98014.78;5008753;28;20030;-76
2023/10/20 07:04:41;;;;;;;24.70;14.23;;;;;;;11.44;100.00;98019.19;5015696;28;20061;-75
2023/10/20 07:07:11;;;;;;;21.55;13.38;;;;;;;11.49;100.00;98015.19;5013718;28;20424;-75
2023/10/20 07:09:37;;;;;;;24.45;14.60;;;;;;;11.46;100.00;98012.00;5017119;28;20038;-76
2023/10/20 07:12:03;;;;;;;22.05;13.80;;;;;;;11.47;100.00;98011.88;5005235;28;20057;-75
2023/10/20 07:14:28;;;;;;;20.42;12.45;;;;;;;11.49;100.00;98004.69;5013335;28;20026;-75
2023/10/20 07:16:54;;;;;;;17.23;11.57;;;;;;;11.46;100.00;97998.91;5017210;28;20113;-76
2023/10/20 07:19:19;;;;;;;15.82;11.70;;;;;;;11.41;100.00;98001.13;5016413;28;20033;-75
2023/10/20 07:21:44;;;;;;;16.70;11.15;;;;;;;11.48;100.00;98002.25;5015691;28;20029;-76
2023/10/20 07:24:10;;;;;;;17.33;11.13;;;;;;;11.51;100.00;98007.19;5017419;28;20215;-75
2023/10/20 07:26:35;;;;;;;14.32;10.75;;;;;;;11.52;100.00;97999.19;5015423;28;20037;-76
2023/10/20 07:29:01;;;;;;;16.90;10.68;;;;;;;11.48;100.00;97991.75;5008175;28;20113;-75
2023/10/20 07:31:27;;;;;;;11.40;9.60;;;;;;;11.36;100.00;97983.19;5011692;28;20046;-75
2023/10/20 07:33:53;;;;;;;13.60;9.30;;;;;;;11.39;100.00;97992.56;5014173;28;20087;-76
2023/10/20 07:36:20;;;;;;;10.73;8.73;;;;;;;11.37;100.00;97990.09;5010326;28;20380;-76
2023/10/20 07:38:45;;;;;;;10.48;8.63;;;;;;;11.30;100.00;97987.19;5011483;28;20029;-76
2023/10/20 07:41:12;;;;;;;11.60;8.82;;;;;;;11.22;100.00;97994.88;5012264;28;20513;-76
2023/10/20 07:43:39;;;;;;;11.80;8.68;;;;;;;11.28;100.00;97991.75;5011926;28;20046;-76
2023/10/20 07:46:05;;;;;;;10.52;8.55;;;;;;;11.30;100.00;97996.84;5014343;28;20209;-76
2023/10/20 07:48:34;;;;;;;10.88;8.70;;;;;;;11.29;100.00;97996.00;5014003;28;20279;-76
2023/10/20 07:50:59;;;;;;;;;;;;;;;11.26;100.00;97984.97;5013761;28;20042;-76
2023/10/20 07:53:25;;;;;;;11.20;8.52;;;;;;;11.25;100.00;97986.75;5012447;28;19963;-76
2023/10/20 07:55:51;;;;;;;11.32;8.82;;;;;;;11.23;100.00;97977.41;5012883;28;20045;-76
2023/10/20 07:58:16;;;;;;;11.32;8.68;;;;;;;11.21;100.00;97974.91;5012160;28;20025;-76
2023/10/20 08:00:41;;;;;;;10.73;8.43;;;;;;;11.22;100.00;97975.72;5013230;28;20041;-75
2023/10/20 08:03:10;;;;;;;9.68;7.65;;;;;;;11.14;100.00;97968.56;5015030;28;20038;-76
2023/10/20 08:05:36;;;;;;;9.02;7.57;;;;;;;11.16;100.00;97960.56;5008855;28;20045;-76
2023/10/20 08:08:02;;;;;;;9.63;7.93;;;;;;;11.19;100.00;97961.13;5007205;28;20080;-76
2023/10/20 08:10:28;;;;;;;11.35;7.55;;;;;;;11.21;100.00;97959.19;5012972;28;20104;-76
2023/10/20 08:12:54;;;;;;;11.63;8.07;;;;;;;11.14;100.00;97939.75;5008159;28;20042;-76
2023/10/20 08:15:20;;;;;;;8.18;7.38;;;;;;;11.08;100.00;97940.31;5010205;28;20041;-76
2023/10/20 08:17:46;;;;;;;8.38;7.13;;;;;;;11.03;100.00;97940.69;5011206;28;20049;-75
2023/10/20 08:20:12;;;;;;;7.90;7.10;;;;;;;11.05;100.00;97946.63;5008336;28;20029;-76
2023/10/20 08:22:38;;;;;;;7.53;6.70;;;;;;;11.04;100.00;97958.06;5008779;28;20434;-76
2023/10/20 08:25:04;;;;;;;7.60;6.90;;;;;;;11.05;100.00;97959.72;5012147;28;20057;-76
2023/10/20 08:27:30;;;;;;;12.27;7.25;;;;;;;11.05;100.00;97937.94;5008873;28;20045;-76
2023/10/20 08:29:57;;;;;;;10.43;6.93;;;;;;;11.05;100.00;97944.00;5011719;28;20109;-76
2023/10/20 08:32:24;;;;;;;7.90;6.57;;;;;;;10.89;100.00;97949.75;5007354;28;20037;-76
2023/10/20 08:34:49;;;;;;;7.00;6.30;;;;;;;10.92;100.00;97944.25;5011801;28;20025;-76
2023/10/20 08:37:16;;;;;;;8.75;6.43;;;;;;;10.92;100.00;97941.66;5013201;28;20029;-76
2023/10/20 08:39:41;;;;;;;7.30;6.18;;;;;;;10.93;100.00;97938.06;5012234;28;20328;-75
2023/10/20 08:42:17;;;;;;;8.55;6.65;;;;;;;10.87;100.00;97943.84;5004640;28;20041;-76
2023/10/20 08:44:43;;;;;;;9.07;6.35;;;;;;;10.81;100.00;97940.94;5003112;28;20384;-76
2023/10/20 08:47:12;;;;;;;9.93;7.00;;;;;;;10.87;100.00;97935.97;5013084;28;20048;-76
2023/10/20 08:49:38;;;;;;;;;;;;;;;10.79;100.00;97943.69;5015087;28;20073;-76
2023/10/20 08:52:05;;;;;;;7.38;6.40;;;;;;;10.84;100.00;97940.66;5013059;28;20183;-76
2023/10/20 08:54:30;;;;;;;9.75;6.32;;;;;;;10.77;100.00;97940.38;5013546;28;20034;-76
2023/10/20 08:56:56;;;;;;;7.70;6.18;;;;;;;10.73;100.00;97937.22;5014183;28;20068;-76
2023/10/20 08:59:21;;;;;;;8.40;6.22;;;;;;;10.75;100.00;97940.50;5003370;28;20233;-76
2023/10/20 09:01:47;;;;;;;8.70;6.15;;;;;;;10.67;100.00;97935.09;5011211;28;20045;-76
2023/10/20 09:04:43;;;;;;;6.90;5.38;;;;;;;10.70;100.00;97932.22;4999113;28;20041;-76
2023/10/20 09:07:14;;;;;;;8.77;6.60;;;;;;;10.74;100.00;97945.88;4995633;28;20049;-76
2023/10/20 09:09:39;;;;;;;8.55;6.80;;;;;;;10.68;100.00;97928.09;5002314;28;20043;-76
2023/10/20 09:12:05;;;;;;;8.80;5.55;;;;;;;10.70;100.00;97940.09;5010138;28;20072;-76
2023/10/20 09:14:31;;;;;;;6.10;5.50;;;;;;;10.71;100.00;97940.91;4995160;28;20034;-76
2023/10/20 09:16:59;;;;;;;5.72;4.82;;;;;;;10.66;100.00;97961.41;5013245;28;20067;-76
2023/10/20 09:19:25;;;;;;;5.50;4.63;;;;;;;10.53;100.00;97941.56;5012803;28;20030;-76
2023/10/20 09:21:52;;;;;;;4.93;4.40;;;;;;;10.51;100.00;97940.88;5006432;28;20022;-77
2023/10/20 09:24:17;;;;;;;5.20;4.70;;;;;;;10.54;100.00;97934.53;5013731;28;20317;-76
2023/10/20 09:26:44;;;;;;;5.00;4.50;;;;;;;10.49;100.00;97932.31;5012525;28;20392;-76
2023/10/20 09:29:10;;;;;;;4.95;4.47;;;;;;;10.47;100.00;97929.00;5004806;28;20057;-76
2023/10/20 09:31:36;;;;;;;14.25;4.95;;;;;;;10.40;100.00;97922.63;5000361;28;20042;-76
2023/10/20 09:34:04;;;;;;;4.40;4.00;;;;;;;10.39;100.00;97934.06;5011078;28;20100;-76
2023/10/20 09:36:31;;;;;;;4.45;4.03;;;;;;;10.44;100.00;97934.50;5013906;28;20045;-75
2023/10/20 09:38:58;;;;;;;3.53;3.22;;;;;;;10.40;100.00;97927.03;5015819;28;20026;-76
2023/10/20 09:41:28;;;;;;;4.93;3.92;;;;;;;10.29;100.00;97920.91;5014867;28;20045;-76
2023/10/20 09:44:08;;;;;;;6.90;3.30;;;;;;;10.31;100.00;97918.19;5015518;28;20041;-76
2023/10/20 09:46:55;;;;;;;3.85;3.50;;;;;;;10.36;100.00;97926.47;5010858;28;20129;-76
2023/10/20 09:49:27;;;;;;;6.13;3.08;;;;;;;10.34;100.00;97923.16;5005433;28;20129;-76
2023/10/20 09:51:55;;;;;;;3.92;3.40;;;;;;;10.33;100.00;97909.28;5008677;28;20286;-75
2023/10/20 09:54:25;;;;;;;9.10;3.50;;;;;;;10.31;100.00;97910.34;5012471;28;20113;-76
2023/10/20 09:56:51;;;;;;;3.05;2.75;;;;;;;10.28;100.00;97902.75;5000412;28;20109;-76
2023/10/20 09:59:23;;;;;;;2.92;2.63;;;;;;;10.25;100.00;97903.84;5014342;28;20010;-75
2023/10/20 10:01:49;;;;;;;2.95;2.70;;;;;;;10.18;100.00;97905.31;5013246;28;20034;-76
2023/10/20 10:04:24;;;;;;;2.95;2.65;;;;;;;10.10;100.00;97905.97;5013815;28;20048;-76
2023/10/20 10:06:49;;;;;;;2.88;2.60;;;;;;;10.07;100.00;97894.94;5010204;28;20340;-76
2023/10/20 10:09:15;;;;;;;2.38;2.17;;;;;;;10.11;100.00;97904.19;5009174;28;20033;-75
2023/10/20 10:11:44;;;;;;;2.53;2.30;;;;;;;10.17;100.00;97903.69;5009964;28;20060;-76
2023/10/20 10:14:21;;;;;;;2.80;2.28;;;;;;;10.13;100.00;97904.88;5015308;28;20229;-76
2023/10/20 10:16:49;;;;;;;2.30;2.10;;;;;;;10.20;100.00;97908.63;5010881;28;20041;-75
2023/10/20 10:19:16;;;;;;;2.53;2.03;;;;;;;10.23;100.00;97900.53;5007939;28;20650;-76
2023/10/20 10:21:42;;;;;;;2.42;2.22;;;;;;;10.21;100.00;97902.44;5002428;28;20038;-75
2023/10/20 10:24:17;;;;;;;2.10;1.98;;;;;;;10.18;100.00;97897.47;5012688;28;20041;-75
2023/10/20 10:26:53;;;;;;;2.05;1.95;;;;;;;10.24;100.00;97898.72;5011625;28;20036;-76
2023/10/20 10:29:39;;;;;;;3.33;2.00;;;;;;;10.18;100.00;97895.66;5004526;28;20042;-76
2023/10/20 10:32:12;;;;;;;2.28;2.08;;;;;;;10.14;100.00;97890.84;5012297;28;20046;-76
2023/10/20 10:34:45;;;;;;;1.60;1.50;;;;;;;10.11;100.00;97891.09;5009948;28;20273;-76
2023/10/20 10:37:10;;;;;;;3.33;1.67;;;;;;;10.08;100.00;97880.94;5014623;28;20235;-76
2023/10/20 10:39:36;;;;;;;1.92;1.58;;;;;;;10.07;100.00;97880.09;5017082;28;20175;-75
2023/10/20 10:42:05;;;;;;;1.63;1.52;;;;;;;10.08;100.00;97871.28;5016426;28;20037;-75
2023/10/20 10:44:35;;;;;;;1.35;1.10;;;;;;;10.03;100.00;97873.47;5016287;28;20034;-76
2023/10/20 10:47:03;;;;;;;2.90;1.27;;;;;;;9.93;100.00;97864.75;5010494;28;20042;-76
2023/10/20 10:49:30;;;;;;;1.52;1.42;;;;;;;9.96;100.00;97859.25;5016237;28;20252;-75
2023/10/20 10:51:56;;;;;;;1.50;1.40;;;;;;;9.97;100.00;97859.13;5014291;28;20037;-76
2023/10/20 10:54:23;;;;;;;1.30;1.20;;;;;;;9.97;100.00;97851.28;5017713;28;20359;-76
2023/10/20 10:56:49;;;;;;;1.52;1.40;;;;;;;9.93;100.00;97846.44;5013629;28;20391;-76
2023/10/20 10:59:14;;;;;;;1.40;1.30;;;;;;;9.93;100.00;97841.22;5014315;28;20303;-75
2023/10/20 11:01:41;;;;;;;1.27;1.17;;;;;;;9.91;100.00;97843.13;5016662;28;20121;-76
2023/10/20 11:04:08;;;;;;;1.48;1.17;;;;;;;9.89;100.00;97838.03;5016225;28;20065;-76
2023/10/20 11:06:37;;;;;;;1.73;1.52;;;;;;;9.90;100.00;97839.72;5016362;28;20261;-75
2023/10/20 11:09:05;;;;;;;1.50;1.40;;;;;;;9.90;100.00;97829.25;5013734;28;20042;-76
2023/10/20 11:11:31;;;;;;;2.30;1.17;;;;;;;9.87;100.00;97826.06;5029493;28;20065;-75
2023/10/20 11:13:57;;;;;;;0.90;0.90;;;;;;;9.86;100.00;97827.88;5017435;28;20042;-75
2023/10/20 11:16:22;;;;;;;2.97;1.00;;;;;;;9.86;100.00;97820.03;5017583;28;20073;-75
2023/10/20 11:18:48;;;;;;;1.80;1.10;;;;;;;9.85;100.00;97825.38;5005848;28;20034;-75
2023/10/20 11:21:13;;;;;;;1.42;1.20;;;;;;;9.90;100.00;97813.56;5008157;28;20030;-75
2023/10/20 11:23:39;;;;;;;0.95;0.88;;;;;;;9.83;100.00;97801.16;5012644;28;20038;-75
2023/10/20 11:26:21;;;;;;;1.30;0.93;;;;;;;9.93;100.00;97799.41;5015458;28;20041;-75
2023/10/20 11:28:46;;;;;;;0.90;0.90;;;;;;;10.00;100.00;97803.13;5014289;28;21377;-76
2023/10/20 11:31:11;;;;;;;0.80;0.70;;;;;;;9.97;100.00;97806.03;5011829;28;20049;-75
2023/10/20 11:33:37;;;;;;;1.00;0.88;;;;;;;9.89;100.00;97798.81;5011575;28;20303;-75
2023/10/20 11:36:04;;;;;;;0.85;0.85;;;;;;;9.94;100.00;97795.84;5015942;28;20045;-76
2023/10/20 11:38:32;;;;;;;0.80;0.77;;;;;;;9.95;100.00;97793.09;5008634;28;20045;-75
2023/10/20 11:40:57;;;;;;;1.40;0.90;;;;;;;9.92;100.00;97792.53;4997482;28;20337;-76
2023/10/20 11:43:23;;;;;;;1.00;0.80;;;;;;;9.93;100.00;97800.25;5011328;28;20042;-76
2023/10/20 11:45:48;;;;;;;0.90;0.90;;;;;;;9.98;100.00;97797.22;5016503;28;20092;-76